Terminal Aerodrome Forecast
Issued by NWS Dallas/Fort Worth, TX

Home | Current Version | Previous Version | Text Only | Print | Product List | Glossary On
Versions: 1 2 3 4 5 6 7 8 9 10 11 12 13 14 15 16 17 18 19 20 21 22 23 24 25
000
FTUS44 KFWD 071458 AAA
TAFDFW
TAF AMD
KDFW 071458Z 0715/0818 20015KT P6SM VCSH BKN025 BKN035 OVC070
     FM071600 19017KT P6SM SCT025 BKN050
     FM072100 17016KT P6SM VCTS SCT040CB BKN250
     FM080200 18014KT P6SM -SHRA BKN050
     FM080800 18014KT P6SM VCTS BKN020CB
     FM081500 19015KT P6SM VCSH SCT030 BKN100=

USA.gov is the U.S. government's official web portal to all federal, state and local government web resources and services.